This is the latest recevied weather packets stored in our database for station/object F4CYQ-10. If no packets are shown the sender has not sent any weather packets the latest 10 day(s).
| Time | Temp. | Humidity | Pressure | Rain* | Wind** | Luminosity | Snow |
|---|---|---|---|---|---|---|---|
| 1777540911 | 20° C | 60% | 1017.5 hPa | - | - | - | - |
| 1777540010 | 20° C | 61% | 1017.2 hPa | - | - | - | - |
| 1777539109 | 20.56° C | 61% | 1017.2 hPa | - | - | - | - |
| 1777538914 | 19.44° C | 61% | 1017.2 hPa | - | - | - | - |
| 1777538013 | 20° C | 60% | 1016.9 hPa | - | - | - | - |
| 1777537113 | 20° C | 60% | 1016.9 hPa | - | - | - | - |
| 1777536211 | 20.56° C | 61% | 1016.6 hPa | - | - | - | - |
| 1777535893 | 19.44° C | 61% | 1016.4 hPa | - | - | - | - |
| 1777534992 | 19.44° C | 60% | 1016 hPa | - | - | - | - |
| 1777534091 | 19.44° C | 60% | 1016 hPa | - | - | - | - |
| 1777533190 | 20.56° C | 60% | 1015.9 hPa | - | - | - | - |
| 1777533153 | 18.89° C | 60% | 1015.8 hPa | - | - | - | - |
| 1777532252 | 19.44° C | 60% | 1015.6 hPa | - | - | - | - |
| 1777531351 | 19.44° C | 59% | 1015.5 hPa | - | - | - | - |
| 1777530450 | 20.56° C | 58% | 1015.8 hPa | - | - | - | - |
| 1777530436 | 19.44° C | 59% | 1015.5 hPa | - | - | - | - |
| 1777529535 | 19.44° C | 59% | 1015.8 hPa | - | - | - | - |
| 1777528634 | 19.44° C | 58% | 1016 hPa | - | - | - | - |
| 1777528528 | -5° C | 100% | 4.8 hPa | - | - | - | - |
| 1777527733 | -5° C | 100% | 4.8 hPa | - | - | - | - |
| 1777527359 | 20° C | 57% | 1015.8 hPa | - | - | - | - |
| 1777526458 | 20° C | 58% | 1015.2 hPa | - | - | - | - |
| 1777525557 | 20° C | 59% | 1014.9 hPa | - | - | - | - |
| 1777524656 | 21.11° C | 60% | 1014.8 hPa | - | - | - | - |
| 1777524241 | 20° C | 60% | 1014.7 hPa | - | - | - | - |
* Rain since midnight (hover to see other rain measurements)
** Current wind speed in m/s (hover to see current wind gust speed)